This is the latest recevied weather packets stored in our database for station/object FW4141. If no packets are shown the sender has not sent any weather packets the latest 10 day(s).
| Time | Temp. | Humidity | Pressure | Rain* | Wind** | Luminosity | Snow |
|---|---|---|---|---|---|---|---|
| 1778005860 | 16.11° C | 70% | 1000.8 hPa | 0 mm | - | - | - |
| 1778004655 | 16.67° C | 69% | 1000.8 hPa | 0 mm | - | - | - |
| 1778002278 | 17.78° C | 62% | 1000.8 hPa | 0 mm | - | - | - |
| 1777999825 | 18.89° C | 60% | 1000.6 hPa | 0 mm | - | - | - |
| 1777994451 | 18.89° C | 61% | 1001.1 hPa | 0 mm | - | - | - |
| 1777993849 | 18.89° C | 62% | 1001.1 hPa | 0 mm | - | - | - |
| 1777992037 | 19.44° C | 60% | 1001.2 hPa | 0 mm | - | - | - |
| 1777989016 | 21.11° C | 57% | 1001.5 hPa | 0 mm | - | - | - |
| 1777987871 | 22.22° C | 53% | 1001.4 hPa | 0 mm | - | - | - |
| 1777980024 | 24.44° C | 45% | 1001.1 hPa | 0 mm | - | - | - |
| 1777978817 | 23.89° C | 46% | 1001.2 hPa | 0 mm | - | - | - |
| 1777974656 | 22.78° C | 50% | 1001.8 hPa | 0 mm | - | - | - |
| 1777971637 | 22.22° C | 53% | 1002.1 hPa | 0 mm | - | - | - |
| 1777965056 | 19.44° C | 60% | 1002.4 hPa | 0 mm | - | - | - |
| 1777962644 | 17.78° C | 61% | 1002.3 hPa | 0 mm | - | - | - |
| 1777962064 | 17.78° C | 63% | 1002.4 hPa | 0 mm | - | - | - |
| 1777960228 | 16.67° C | 70% | 1002.6 hPa | 0 mm | - | - | - |
| 1777959629 | 16.67° C | 70% | 1002.9 hPa | 0 mm | - | - | - |
| 1777958416 | 16.11° C | 71% | 1003.3 hPa | 0 mm | - | - | - |
| 1777956667 | 15° C | 73% | 1003.5 hPa | 0 mm | - | - | - |
| 1777953049 | 14.44° C | 76% | 1003.6 hPa | 0 mm | - | - | - |
| 1777951841 | 13.89° C | 80% | 1003.7 hPa | 0 mm | - | - | - |
| 1777950630 | 13.89° C | 81% | 1003.9 hPa | 0 mm | - | - | - |
| 1777945278 | 12.22° C | 85% | 1004.7 hPa | 0 mm | - | - | - |
| 1777942260 | 12.22° C | 83% | 1004.8 hPa | 0 mm | - | - | - |
* Rain latest hour (hover to see other rain measurements)
** Current wind speed in m/s (hover to see current wind gust speed)